Flight Track Log - Related Links

Times and Time Zones

All times are in EDT time to prevent confusion due to time zone crossing. See the TCF3494 flight status page for this flight to view local times or setup timezone preferences in your user account.

Time Position Orientation Groundspeed Altitude Reporting Facility
EDT Latitude Longitude Course Direction KTS MPH feet Rate Location/Type
Fri 08:49:00 PM 43.0758 -74.6490 274° West  Level FlightAware Approximate
Fri 08:50:00 PM 43.0819 -74.7609 274° West  Level FlightAware Approximate
Fri 08:51:00 PM 43.0878 -74.8727 274° West  Level FlightAware Approximate
Fri 08:52:00 PM 43.0938 -74.9865 274° West  Level FlightAware Approximate
Fri 08:53:00 PM 43.0996 -75.1003 274° West  Level FlightAware Approximate
Fri 08:54:00 PM 43.1054 -75.2158 274° West  Level FlightAware Approximate
Fri 08:55:00 PM 43.1111 -75.3314 274° West  Level FlightAware Approximate
Fri 08:56:00 PM 43.1166 -75.4470 274° West  Level FlightAware Approximate
Fri 08:57:00 PM 43.1222 -75.5664 274° West  Level FlightAware Approximate
Fri 08:58:00 PM 43.1278 -75.6858 274° West  Level FlightAware Approximate
Fri 08:59:00 PM 43.1331 -75.8052 274° West  Level FlightAware Approximate
Fri 09:00:00 PM 43.1384 -75.9247 273° West  Level FlightAware Approximate
Fri 09:01:00 PM 43.1435 -76.0441 273° West  Level FlightAware Approximate
Fri 09:02:00 PM 43.1485 -76.1636 273° West  Level FlightAware Approximate
Fri 09:03:00 PM 43.1502 -76.2882 270° West  Level FlightAware Approximate
Fri 09:04:00 PM 43.1503 -76.4104 270° West  Level FlightAware Approximate
Fri 09:05:00 PM 43.1503 -76.5325 270° West  Level FlightAware Approximate
Fri 09:06:00 PM 43.1502 -76.6547 270° West  Level FlightAware Approximate
Fri 09:07:00 PM 43.1500 -76.7769 270° West  Level FlightAware Approximate
Fri 09:08:00 PM 43.1494 -76.9000 270° West  Level FlightAware Approximate
Fri 09:09:00 PM 43.1488 -77.0232 270° West  Level FlightAware Approximate
Fri 09:10:00 PM 43.1480 -77.1463 270° West  Level FlightAware Approximate
Fri 09:11:00 PM 43.1471 -77.2694 269° West  Level FlightAware Approximate
Fri 09:12:00 PM 43.1460 -77.3926 269° West  Level FlightAware Approximate
Fri 09:13:00 PM 43.1448 -77.5157 269° West  Level FlightAware Approximate
Fri 09:14:00 PM 43.1366 -77.6412 265° West  Level Estimated
Fri 09:15:00 PM 43.1282 -77.7666 265° West  Level Estimated
Fri 09:16:00 PM 43.1197 -77.8920 265° West  Level Estimated
Fri 09:17:00 PM 43.1111 -78.0174 265° West  Level Estimated
Fri 09:18:00 PM 43.1023 -78.1427 265° West  Level Estimated
Fri 09:19:00 PM 43.0929 -78.2745 264° West  Level Estimated
Fri 09:20:00 PM 43.0834 -78.4063 264° West  Level Estimated
Fri 09:21:00 PM 43.0737 -78.5380 264° West  Level Estimated
Fri 09:22:00 PM 43.0638 -78.6697 264° West  Level Estimated
Fri 09:23:00 PM 43.0538 -78.8013 264° West  Level Estimated
Fri 09:24:00 PM 43.0437 -78.9329 264° West  Level Estimated
Fri 09:25:00 PM 43.0334 -79.0645 264° West  Level Estimated
Fri 09:26:00 PM 43.0229 -79.1960 264° West  Level Estimated
Fri 09:27:00 PM 43.0123 -79.3275 264° West  Level Estimated
Fri 09:28:00 PM 43.0016 -79.4589 264° West  Level Estimated
Fri 09:29:00 PM 42.9907 -79.5903 264° West  Level Estimated
Fri 09:30:00 PM 42.9796 -79.7216 263° West  Level Estimated
Fri 09:31:00 PM 42.9684 -79.8529 263° West  Level Estimated
Fri 09:32:00 PM 42.9571 -79.9841 263° West  Level Estimated
Fri 09:33:00 PM 42.9456 -80.1153 263° West  Level Estimated
Fri 09:34:00 PM 42.9339 -80.2464 263° West  Level Estimated
Fri 09:35:00 PM 42.9221 -80.3775 263° West  Level Estimated
Fri 09:36:00 PM 42.9102 -80.5085 263° West  Level Estimated
Fri 09:37:00 PM 42.8981 -80.6395 263° West  Level Estimated
Fri 09:38:00 PM 42.8858 -80.7704 263° West  Level Estimated
Fri 09:39:00 PM 42.8734 -80.9013 263° West  Level Estimated
Fri 09:40:00 PM 42.8609 -81.0321 263° West  Level Estimated
Fri 09:41:00 PM 42.8482 -81.1629 263° West  Level Estimated
Fri 09:42:00 PM 42.8354 -81.2936 262° West  Level Estimated
Fri 09:43:00 PM 42.8224 -81.4243 262° West  Level Estimated
Fri 09:44:00 PM 42.8092 -81.5549 262° West  Level Estimated
Fri 09:45:00 PM 42.7960 -81.6854 262° West  Level Estimated
Fri 09:46:00 PM 42.7825 -81.8159 262° West  Level Estimated
Fri 09:47:00 PM 42.7689 -81.9464 262° West  Level Estimated
Fri 09:48:00 PM 42.7552 -82.0768 262° West  Level Estimated
Fri 09:49:00 PM 42.7413 -82.2071 262° West  Level Estimated
Fri 09:50:00 PM 42.7273 -82.3373 262° West  Level Estimated
Fri 09:51:00 PM 42.7131 -82.4675 262° West  Level Estimated
Fri 09:52:00 PM 42.6988 -82.5977 262° West  Level Estimated
Fri 09:53:00 PM 42.6843 -82.7278 261° West  Level Estimated
Fri 09:54:00 PM 42.6697 -82.8578 261° West  Level Estimated
Fri 09:55:00 PM 42.6550 -82.9877 261° West  Level Estimated
Fri 09:56:00 PM 42.6400 -83.1176 261° West  Level Estimated
Fri 09:57:00 PM 42.6250 -83.2475 261° West  Level Estimated
Fri 09:58:00 PM 42.6098 -83.3773 261° West  Level Estimated
Fri 09:59:00 PM 42.5944 -83.5070 261° West  Level Estimated
Fri 10:00:00 PM 42.5789 -83.6366 261° West  Level Estimated
Fri 10:01:00 PM 42.5633 -83.7662 261° West  Level Estimated
Fri 10:02:00 PM 42.5475 -83.8957 261° West  Level Estimated
Fri 10:03:00 PM 42.5316 -84.0252 261° West  Level Estimated
Fri 10:04:00 PM 42.5155 -84.1545 260° West  Level Estimated
Fri 10:05:00 PM 42.4993 -84.2839 260° West  Level Estimated
Fri 10:06:00 PM 42.4829 -84.4131 260° West  Level Estimated
Fri 10:07:00 PM 42.4664 -84.5423 260° West  Level Estimated
Fri 10:08:00 PM 42.4497 -84.6714 260° West  Level Estimated
Fri 10:09:00 PM 42.4329 -84.8005 260° West  Level Estimated
Fri 10:10:00 PM 42.4160 -84.9294 260° West  Level Estimated
Fri 10:11:00 PM 42.3989 -85.0583 260° West  Level Estimated
Fri 10:12:00 PM 42.3817 -85.1872 260° West  Level Estimated
Fri 10:13:00 PM 42.3643 -85.3159 260° West  Level Estimated
Fri 10:14:00 PM 42.3467 -85.4446 260° West  Level Estimated
Fri 10:15:00 PM 42.3291 -85.5732 260° West  Level Estimated
Fri 10:16:00 PM 42.3113 -85.7018 259° West  Level Estimated
Fri 10:17:00 PM 42.2933 -85.8303 259° West  Level Estimated
Fri 10:18:00 PM 42.2752 -85.9587 259° West  Level Estimated
Fri 10:19:00 PM 42.2570 -86.0870 259° West  Level Estimated
Fri 10:20:00 PM 42.2386 -86.2152 259° West  Level Estimated
Fri 10:21:00 PM 42.2201 -86.3434 259° West  Level Estimated
Fri 10:22:00 PM 42.2014 -86.4715 259° West  Level Estimated
Fri 10:23:00 PM 42.1826 -86.5996 259° West  Level Estimated
Fri 10:24:00 PM 42.1636 -86.7275 259° West  Level Estimated
Fri 10:25:00 PM 42.1445 -86.8554 259° West  Level Estimated
Fri 10:26:00 PM 42.1253 -86.9832 259° West  Level Estimated
Fri 10:27:00 PM 42.1059 -87.1109 258° West  Level Estimated
Fri 10:28:00 PM 42.0864 -87.2385 258° West  Level Estimated
Fri 10:29:00 PM 42.0667 -87.3661 258° West  Level Estimated
Fri 10:30:00 PM 42.0469 -87.4936 258° West  Level Estimated
Fri 10:31:00 PM 42.0269 -87.6210 258° West  Level Estimated
Fri 10:32:00 PM 42.0069 -87.7483 258° West  Level Estimated
Fri 10:33:00 PM 41.9866 -87.8755 258° West  Level Estimated
Fri 10:34:00 PM 41.9817 -87.9067 258° West  Level Estimated
Fri 10:35:00 PM 41.9817 -87.9067 217° Southwest  Level Estimated
Fri 10:36:00 PM 41.9817 -87.9067 217° Southwest  Level Estimated
Fri 10:37:00 PM 41.9817 -87.9067 217° Southwest  Level Estimated
Fri 10:38:00 PM 41.9817 -87.9067 217° Southwest  Level Estimated
Fri 10:39:00 PM 41.9817 -87.9067 217° Southwest  Level Estimated
Fri 10:40:00 PM 41.9817 -87.9067 217° Southwest  Level Estimated
Fri 10:41:00 PM 41.9817 -87.9067 217° Southwest  Level Estimated
Fri 10:42:00 PM 41.9817 -87.9067 217° Southwest  Level Estimated
Fri 10:43:00 PM 41.9817 -87.9067 217° Southwest  Level Estimated
Fri 10:44:00 PM 41.9817 -87.9067 217° Southwest  Level Estimated
Fri 10:45:00 PM 41.9817 -87.9067 217° Southwest  Level Estimated
Fri 10:46:00 PM 41.9817 -87.9067 217° Southwest  Level Estimated
Fri 10:47:00 PM 41.9817 -87.9067 217° Southwest  Level Estimated
Fri 10:48:00 PM 41.9817 -87.9067 217° Southwest  Level Estimated
Fri 10:49:00 PM 41.9817 -87.9067 217° Southwest  Level Estimated
Fri 10:50:00 PM 41.9817 -87.9067 217° Southwest  Level Estimated
Fri 10:51:00 PM 41.9817 -87.9067 217° Southwest  Level Estimated
Fri 10:52:00 PM 41.9817 -87.9067 217° Southwest  Level Estimated
Fri 10:53:00 PM 41.9817 -87.9067 217° Southwest  Level Estimated
Fri 10:54:00 PM 41.9817 -87.9067 217° Southwest  Level Estimated
Fri 10:55:00 PM 41.9817 -87.9067 217° Southwest  Level Estimated
Fri 10:56:00 PM 41.9817 -87.9067 217° Southwest  Level Estimated
Fri 10:57:00 PM 41.9817 -87.9067 217° Southwest  Level Estimated
Fri 10:58:00 PM 41.9817 -87.9067 217° Southwest  Level Estimated
Fri 10:59:00 PM 41.9817 -87.9067 217° Southwest  Level Estimated
Fri 11:00:00 PM 41.9817 -87.9067 217° Southwest  Level Estimated
Fri 11:01:00 PM 41.9817 -87.9067 217° Southwest  Level Estimated
Fri 11:02:00 PM 41.9817 -87.9067 217° Southwest  Level Estimated
Fri 11:03:00 PM 41.9817 -87.9067 217° Southwest  Level Estimated
Fri 11:04:00 PM 41.9817 -87.9067 217° Southwest  Level Estimated
Fri 11:05:00 PM 41.9817 -87.9067 217° Southwest  Level Estimated
Fri 11:06:00 PM 41.9817 -87.9067 217° Southwest  Level Estimated
Fri 11:07:00 PM 41.9817 -87.9067 217° Southwest  Level Estimated
Fri 11:08:00 PM 41.9817 -87.9067 217° Southwest  Level Estimated
Fri 11:09:00 PM 41.9817 -87.9067 217° Southwest  Level Estimated
Fri 11:10:00 PM 41.9817 -87.9067 217° Southwest  Level Estimated
Fri 11:11:00 PM 41.9817 -87.9067 217° Southwest  Level Estimated
Fri 11:12:00 PM 41.9817 -87.9067 217° Southwest  Level Estimated
Fri 11:13:00 PM 41.9817 -87.9067 217° Southwest  Level Estimated
Fri 11:14:00 PM 41.9817 -87.9067 217° Southwest  Level Estimated
Fri 11:15:00 PM 41.9817 -87.9067 217° Southwest  Level Estimated
Fri 11:16:00 PM 41.9817 -87.9067 217° Southwest  Level Estimated
Fri 11:17:00 PM 41.9817 -87.9067 217° Southwest  Level Estimated
Fri 11:18:00 PM 41.9817 -87.9067 217° Southwest  Level Estimated
Fri 11:19:00 PM 41.9817 -87.9067 217° Southwest  Level Estimated
Fri 11:20:00 PM 41.9817 -87.9067 217° Southwest  Level Estimated
Fri 11:21:00 PM 41.9817 -87.9067 217° Southwest  Level Estimated
Fri 11:22:00 PM 41.9817 -87.9067 217° Southwest  Level Estimated
Fri 11:23:00 PM 41.9817 -87.9067 217° Southwest  Level Estimated
Fri 11:24:00 PM 41.9817 -87.9067 217° Southwest  Level Estimated
Fri 11:25:00 PM 41.9817 -87.9067 217° Southwest  Level Estimated
Fri 11:26:00 PM 41.9817 -87.9067 217° Southwest  Level Estimated
Fri 11:27:00 PM 41.9817 -87.9067 217° Southwest  Level Estimated
Fri 11:28:00 PM 41.9817 -87.9067 217° Southwest  Level Estimated
Fri 11:29:00 PM 41.9817 -87.9067 217° Southwest  Level Estimated
Fri 11:30:00 PM 41.9817 -87.9067 217° Southwest  Level Estimated
Fri 11:31:00 PM 41.9817 -87.9067 217° Southwest  Level Estimated
Fri 11:32:00 PM 41.9817 -87.9067 217° Southwest  Level Estimated
Fri 11:33:00 PM 41.9817 -87.9067 217° Southwest  Level Estimated
Fri 11:34:00 PM 41.9817 -87.9067 217° Southwest  Level Estimated
Fri 11:35:00 PM 41.9817 -87.9067 217° Southwest  Level Estimated
Fri 11:36:00 PM 41.9817 -87.9067 217° Southwest  Level Estimated
Fri 11:37:00 PM 41.9817 -87.9067 217° Southwest  Level Estimated

Login

Don't have an account? Register now (free) for customized features, flight alerts, and more!